sensor_id;sensor_type;location;lat;lon;timestamp;P1;durP1;ratioP1;P2;durP2;ratioP2
41309;SDS011;27057;51.438;-0.010;2024-03-08T00:00:23;106.45;;;47.75;;
41309;SDS011;27057;51.438;-0.010;2024-03-08T00:02:51;102.80;;;45.92;;
41309;SDS011;27057;51.438;-0.010;2024-03-08T00:05:19;103.07;;;46.03;;
41309;SDS011;27057;51.438;-0.010;2024-03-08T00:07:50;99.43;;;44.30;;
41309;SDS011;27057;51.438;-0.010;2024-03-08T00:10:17;112.35;;;47.20;;
41309;SDS011;27057;51.438;-0.010;2024-03-08T00:12:56;115.55;;;49.90;;
41309;SDS011;27057;51.438;-0.010;2024-03-08T00:15:25;95.45;;;43.60;;
41309;SDS011;27057;51.438;-0.010;2024-03-08T00:17:53;117.82;;;49.42;;
41309;SDS011;27057;51.438;-0.010;2024-03-08T00:20:21;99.95;;;47.88;;
41309;SDS011;27057;51.438;-0.010;2024-03-08T00:22:50;113.68;;;47.40;;
41309;SDS011;27057;51.438;-0.010;2024-03-08T00:25:18;127.40;;;50.33;;
41309;SDS011;27057;51.438;-0.010;2024-03-08T00:27:45;113.18;;;48.65;;
41309;SDS011;27057;51.438;-0.010;2024-03-08T00:30:16;103.65;;;44.50;;
41309;SDS011;27057;51.438;-0.010;2024-03-08T00:32:44;111.38;;;49.40;;
41309;SDS011;27057;51.438;-0.010;2024-03-08T00:35:12;108.13;;;51.22;;
41309;SDS011;27057;51.438;-0.010;2024-03-08T00:37:40;115.55;;;47.60;;
41309;SDS011;27057;51.438;-0.010;2024-03-08T00:40:09;110.70;;;49.95;;
41309;SDS011;27057;51.438;-0.010;2024-03-08T00:42:36;125.80;;;52.50;;
41309;SDS011;27057;51.438;-0.010;2024-03-08T00:45:07;120.05;;;50.83;;
41309;SDS011;27057;51.438;-0.010;2024-03-08T00:47:35;121.38;;;52.08;;
41309;SDS011;27057;51.438;-0.010;2024-03-08T00:50:03;115.13;;;51.80;;
41309;SDS011;27057;51.438;-0.010;2024-03-08T00:52:31;116.28;;;51.05;;
41309;SDS011;27057;51.438;-0.010;2024-03-08T00:54:59;108.03;;;50.45;;
41309;SDS011;27057;51.438;-0.010;2024-03-08T00:57:26;108.15;;;48.17;;
41309;SDS011;27057;51.438;-0.010;2024-03-08T00:59:56;114.38;;;52.78;;
41309;SDS011;27057;51.438;-0.010;2024-03-08T01:02:26;112.63;;;48.38;;
41309;SDS011;27057;51.438;-0.010;2024-03-08T01:04:54;109.88;;;48.70;;
41309;SDS011;27057;51.438;-0.010;2024-03-08T01:07:21;106.72;;;48.85;;
41309;SDS011;27057;51.438;-0.010;2024-03-08T01:09:49;113.90;;;49.92;;
41309;SDS011;27057;51.438;-0.010;2024-03-08T01:12:17;119.57;;;49.60;;
41309;SDS011;27057;51.438;-0.010;2024-03-08T01:14:45;114.68;;;49.63;;
41309;SDS011;27057;51.438;-0.010;2024-03-08T01:17:13;115.18;;;49.75;;
41309;SDS011;27057;51.438;-0.010;2024-03-08T01:19:40;118.38;;;52.03;;
41309;SDS011;27057;51.438;-0.010;2024-03-08T01:22:07;110.25;;;51.08;;
41309;SDS011;27057;51.438;-0.010;2024-03-08T01:24:35;109.55;;;50.17;;
41309;SDS011;27057;51.438;-0.010;2024-03-08T01:27:02;110.32;;;49.33;;
41309;SDS011;27057;51.438;-0.010;2024-03-08T01:29:30;110.47;;;49.63;;
41309;SDS011;27057;51.438;-0.010;2024-03-08T01:31:58;115.40;;;49.63;;
41309;SDS011;27057;51.438;-0.010;2024-03-08T01:34:28;117.15;;;47.90;;
41309;SDS011;27057;51.438;-0.010;2024-03-08T01:36:56;113.75;;;49.22;;
41309;SDS011;27057;51.438;-0.010;2024-03-08T01:39:24;116.25;;;48.92;;
41309;SDS011;27057;51.438;-0.010;2024-03-08T01:41:52;118.53;;;48.53;;
41309;SDS011;27057;51.438;-0.010;2024-03-08T01:44:24;110.50;;;48.60;;
41309;SDS011;27057;51.438;-0.010;2024-03-08T01:46:52;116.28;;;49.38;;
41309;SDS011;27057;51.438;-0.010;2024-03-08T01:49:21;103.72;;;48.38;;
41309;SDS011;27057;51.438;-0.010;2024-03-08T01:51:49;107.65;;;49.08;;
41309;SDS011;27057;51.438;-0.010;2024-03-08T01:54:17;107.28;;;47.63;;
41309;SDS011;27057;51.438;-0.010;2024-03-08T01:56:47;105.53;;;44.58;;
41309;SDS011;27057;51.438;-0.010;2024-03-08T01:59:15;107.60;;;44.03;;
41309;SDS011;27057;51.438;-0.010;2024-03-08T02:01:44;96.30;;;44.65;;
41309;SDS011;27057;51.438;-0.010;2024-03-08T02:04:12;99.28;;;40.05;;
41309;SDS011;27057;51.438;-0.010;2024-03-08T02:06:39;105.35;;;44.05;;
41309;SDS011;27057;51.438;-0.010;2024-03-08T02:09:07;111.82;;;40.83;;
41309;SDS011;27057;51.438;-0.010;2024-03-08T02:11:34;95.82;;;40.15;;
41309;SDS011;27057;51.438;-0.010;2024-03-08T02:14:05;93.13;;;39.75;;
41309;SDS011;27057;51.438;-0.010;2024-03-08T02:16:33;104.53;;;42.28;;
41309;SDS011;27057;51.438;-0.010;2024-03-08T02:19:01;102.28;;;42.45;;
41309;SDS011;27057;51.438;-0.010;2024-03-08T02:21:29;106.72;;;41.85;;
41309;SDS011;27057;51.438;-0.010;2024-03-08T02:23:57;88.72;;;39.63;;
41309;SDS011;27057;51.438;-0.010;2024-03-08T02:26:25;97.18;;;41.92;;
41309;SDS011;27057;51.438;-0.010;2024-03-08T02:28:54;101.28;;;38.45;;
41309;SDS011;27057;51.438;-0.010;2024-03-08T02:31:22;93.93;;;37.75;;
41309;SDS011;27057;51.438;-0.010;2024-03-08T02:33:49;86.13;;;37.63;;
41309;SDS011;27057;51.438;-0.010;2024-03-08T02:36:17;92.95;;;40.00;;
41309;SDS011;27057;51.438;-0.010;2024-03-08T02:38:45;90.57;;;36.88;;
41309;SDS011;27057;51.438;-0.010;2024-03-08T02:41:12;81.15;;;38.05;;
41309;SDS011;27057;51.438;-0.010;2024-03-08T02:43:40;93.47;;;39.03;;
41309;SDS011;27057;51.438;-0.010;2024-03-08T02:46:07;95.00;;;40.55;;
41309;SDS011;27057;51.438;-0.010;2024-03-08T02:48:35;86.22;;;36.75;;
41309;SDS011;27057;51.438;-0.010;2024-03-08T02:51:02;86.03;;;37.78;;
41309;SDS011;27057;51.438;-0.010;2024-03-08T02:53:31;95.97;;;39.38;;
41309;SDS011;27057;51.438;-0.010;2024-03-08T02:55:59;99.88;;;38.95;;
41309;SDS011;27057;51.438;-0.010;2024-03-08T02:58:26;89.45;;;39.13;;
41309;SDS011;27057;51.438;-0.010;2024-03-08T03:00:54;86.25;;;37.92;;
41309;SDS011;27057;51.438;-0.010;2024-03-08T03:03:22;84.50;;;38.15;;
41309;SDS011;27057;51.438;-0.010;2024-03-08T03:05:49;85.30;;;37.17;;
41309;SDS011;27057;51.438;-0.010;2024-03-08T03:08:18;93.13;;;37.22;;
41309;SDS011;27057;51.438;-0.010;2024-03-08T03:10:46;91.47;;;38.83;;
41309;SDS011;27057;51.438;-0.010;2024-03-08T03:13:15;84.80;;;36.47;;
41309;SDS011;27057;51.438;-0.010;2024-03-08T03:15:42;95.38;;;37.72;;
41309;SDS011;27057;51.438;-0.010;2024-03-08T03:18:09;84.22;;;36.08;;
41309;SDS011;27057;51.438;-0.010;2024-03-08T03:20:39;94.72;;;36.45;;
41309;SDS011;27057;51.438;-0.010;2024-03-08T03:23:10;91.25;;;38.00;;
41309;SDS011;27057;51.438;-0.010;2024-03-08T03:25:42;87.85;;;38.40;;
41309;SDS011;27057;51.438;-0.010;2024-03-08T03:28:14;87.22;;;38.47;;
41309;SDS011;27057;51.438;-0.010;2024-03-08T03:30:45;89.20;;;38.75;;
41309;SDS011;27057;51.438;-0.010;2024-03-08T03:33:14;87.97;;;36.60;;
41309;SDS011;27057;51.438;-0.010;2024-03-08T03:35:44;85.57;;;38.22;;
41309;SDS011;27057;51.438;-0.010;2024-03-08T03:38:12;96.07;;;41.45;;
41309;SDS011;27057;51.438;-0.010;2024-03-08T03:40:41;95.65;;;36.42;;
41309;SDS011;27057;51.438;-0.010;2024-03-08T03:43:09;81.65;;;37.10;;
41309;SDS011;27057;51.438;-0.010;2024-03-08T03:45:38;90.93;;;38.80;;
41309;SDS011;27057;51.438;-0.010;2024-03-08T03:48:08;86.43;;;35.78;;
41309;SDS011;27057;51.438;-0.010;2024-03-08T03:50:38;84.90;;;34.78;;
41309;SDS011;27057;51.438;-0.010;2024-03-08T03:53:08;84.90;;;34.75;;
41309;SDS011;27057;51.438;-0.010;2024-03-08T03:55:37;84.78;;;37.78;;
41309;SDS011;27057;51.438;-0.010;2024-03-08T03:58:07;81.10;;;34.50;;
41309;SDS011;27057;51.438;-0.010;2024-03-08T04:00:38;92.20;;;37.15;;
41309;SDS011;27057;51.438;-0.010;2024-03-08T04:03:06;87.55;;;37.35;;
41309;SDS011;27057;51.438;-0.010;2024-03-08T04:05:34;80.30;;;36.08;;
41309;SDS011;27057;51.438;-0.010;2024-03-08T04:08:02;83.72;;;36.53;;
41309;SDS011;27057;51.438;-0.010;2024-03-08T04:10:31;85.00;;;35.33;;
41309;SDS011;27057;51.438;-0.010;2024-03-08T04:12:58;87.85;;;36.97;;
41309;SDS011;27057;51.438;-0.010;2024-03-08T04:15:31;80.22;;;34.78;;
41309;SDS011;27057;51.438;-0.010;2024-03-08T04:17:59;83.05;;;37.80;;
41309;SDS011;27057;51.438;-0.010;2024-03-08T04:20:27;86.05;;;36.22;;
41309;SDS011;27057;51.438;-0.010;2024-03-08T04:22:55;83.13;;;36.22;;
41309;SDS011;27057;51.438;-0.010;2024-03-08T04:25:23;83.70;;;37.47;;
41309;SDS011;27057;51.438;-0.010;2024-03-08T04:27:50;85.38;;;35.97;;
41309;SDS011;27057;51.438;-0.010;2024-03-08T04:30:19;80.63;;;31.95;;
41309;SDS011;27057;51.438;-0.010;2024-03-08T04:32:48;83.63;;;36.03;;
41309;SDS011;27057;51.438;-0.010;2024-03-08T04:35:18;83.25;;;37.20;;
41309;SDS011;27057;51.438;-0.010;2024-03-08T04:37:55;93.68;;;39.92;;
41309;SDS011;27057;51.438;-0.010;2024-03-08T04:40:25;78.88;;;35.42;;
41309;SDS011;27057;51.438;-0.010;2024-03-08T04:42:53;77.18;;;37.08;;
41309;SDS011;27057;51.438;-0.010;2024-03-08T04:45:21;74.82;;;35.28;;
41309;SDS011;27057;51.438;-0.010;2024-03-08T04:47:48;77.55;;;34.22;;
41309;SDS011;27057;51.438;-0.010;2024-03-08T04:50:19;80.18;;;34.78;;
41309;SDS011;27057;51.438;-0.010;2024-03-08T04:52:48;85.18;;;37.03;;
41309;SDS011;27057;51.438;-0.010;2024-03-08T04:55:16;89.30;;;37.33;;
41309;SDS011;27057;51.438;-0.010;2024-03-08T04:57:44;79.47;;;33.28;;
41309;SDS011;27057;51.438;-0.010;2024-03-08T05:00:14;84.35;;;36.58;;
41309;SDS011;27057;51.438;-0.010;2024-03-08T05:02:42;92.10;;;34.60;;
41309;SDS011;27057;51.438;-0.010;2024-03-08T05:05:10;85.13;;;36.60;;
41309;SDS011;27057;51.438;-0.010;2024-03-08T05:07:40;77.95;;;34.63;;
41309;SDS011;27057;51.438;-0.010;2024-03-08T05:10:10;83.78;;;35.67;;
41309;SDS011;27057;51.438;-0.010;2024-03-08T05:12:40;76.47;;;35.22;;
41309;SDS011;27057;51.438;-0.010;2024-03-08T05:15:08;77.38;;;35.67;;
41309;SDS011;27057;51.438;-0.010;2024-03-08T05:17:35;72.55;;;28.48;;
41309;SDS011;27057;51.438;-0.010;2024-03-08T05:20:03;90.60;;;35.58;;
41309;SDS011;27057;51.438;-0.010;2024-03-08T05:22:36;80.03;;;35.25;;
41309;SDS011;27057;51.438;-0.010;2024-03-08T05:25:04;81.03;;;35.05;;
41309;SDS011;27057;51.438;-0.010;2024-03-08T05:27:34;74.95;;;35.22;;
41309;SDS011;27057;51.438;-0.010;2024-03-08T05:30:03;71.57;;;31.38;;
41309;SDS011;27057;51.438;-0.010;2024-03-08T05:32:33;89.35;;;37.10;;
41309;SDS011;27057;51.438;-0.010;2024-03-08T05:35:01;83.65;;;36.00;;
41309;SDS011;27057;51.438;-0.010;2024-03-08T05:37:29;75.38;;;34.75;;
41309;SDS011;27057;51.438;-0.010;2024-03-08T05:39:58;87.55;;;35.80;;
41309;SDS011;27057;51.438;-0.010;2024-03-08T05:42:25;77.60;;;33.50;;
41309;SDS011;27057;51.438;-0.010;2024-03-08T05:44:55;92.03;;;35.88;;
41309;SDS011;27057;51.438;-0.010;2024-03-08T05:47:25;82.90;;;36.42;;
41309;SDS011;27057;51.438;-0.010;2024-03-08T05:49:56;84.97;;;36.35;;
41309;SDS011;27057;51.438;-0.010;2024-03-08T05:52:24;86.35;;;36.83;;
41309;SDS011;27057;51.438;-0.010;2024-03-08T05:54:52;93.85;;;32.60;;
41309;SDS011;27057;51.438;-0.010;2024-03-08T05:57:20;94.53;;;34.30;;
41309;SDS011;27057;51.438;-0.010;2024-03-08T05:59:50;97.40;;;38.47;;
41309;SDS011;27057;51.438;-0.010;2024-03-08T06:02:17;84.95;;;36.28;;
41309;SDS011;27057;51.438;-0.010;2024-03-08T06:04:46;68.82;;;26.40;;
41309;SDS011;27057;51.438;-0.010;2024-03-08T06:07:14;88.43;;;37.00;;
41309;SDS011;27057;51.438;-0.010;2024-03-08T06:09:41;87.78;;;36.03;;
41309;SDS011;27057;51.438;-0.010;2024-03-08T06:12:13;97.75;;;39.42;;
41309;SDS011;27057;51.438;-0.010;2024-03-08T06:14:45;91.10;;;35.85;;
41309;SDS011;27057;51.438;-0.010;2024-03-08T06:17:14;82.53;;;32.67;;
41309;SDS011;27057;51.438;-0.010;2024-03-08T06:19:42;94.70;;;41.50;;
41309;SDS011;27057;51.438;-0.010;2024-03-08T06:22:11;91.45;;;36.85;;
41309;SDS011;27057;51.438;-0.010;2024-03-08T06:24:41;100.75;;;38.20;;
41309;SDS011;27057;51.438;-0.010;2024-03-08T06:27:08;94.00;;;37.42;;
41309;SDS011;27057;51.438;-0.010;2024-03-08T06:29:36;98.70;;;41.67;;
41309;SDS011;27057;51.438;-0.010;2024-03-08T06:32:04;100.95;;;37.75;;
41309;SDS011;27057;51.438;-0.010;2024-03-08T06:34:34;100.22;;;39.10;;
41309;SDS011;27057;51.438;-0.010;2024-03-08T06:37:02;90.63;;;36.60;;
41309;SDS011;27057;51.438;-0.010;2024-03-08T06:39:30;101.03;;;38.47;;
41309;SDS011;27057;51.438;-0.010;2024-03-08T06:41:58;94.28;;;37.28;;
41309;SDS011;27057;51.438;-0.010;2024-03-08T06:44:27;95.82;;;36.50;;
41309;SDS011;27057;51.438;-0.010;2024-03-08T06:46:56;97.40;;;38.88;;
41309;SDS011;27057;51.438;-0.010;2024-03-08T06:49:26;100.75;;;39.83;;
41309;SDS011;27057;51.438;-0.010;2024-03-08T06:51:54;100.03;;;39.13;;
41309;SDS011;27057;51.438;-0.010;2024-03-08T06:54:23;103.07;;;38.70;;
41309;SDS011;27057;51.438;-0.010;2024-03-08T06:56:51;100.38;;;37.60;;
41309;SDS011;27057;51.438;-0.010;2024-03-08T06:59:19;96.63;;;42.40;;
41309;SDS011;27057;51.438;-0.010;2024-03-08T07:01:47;107.07;;;40.65;;
41309;SDS011;27057;51.438;-0.010;2024-03-08T07:04:15;105.70;;;41.72;;
41309;SDS011;27057;51.438;-0.010;2024-03-08T07:06:44;103.55;;;41.00;;
41309;SDS011;27057;51.438;-0.010;2024-03-08T07:09:12;98.70;;;39.67;;
41309;SDS011;27057;51.438;-0.010;2024-03-08T07:11:39;103.40;;;40.78;;
41309;SDS011;27057;51.438;-0.010;2024-03-08T07:14:11;100.00;;;38.10;;
41309;SDS011;27057;51.438;-0.010;2024-03-08T07:16:38;106.90;;;40.63;;
41309;SDS011;27057;51.438;-0.010;2024-03-08T07:19:07;110.05;;;42.13;;
41309;SDS011;27057;51.438;-0.010;2024-03-08T07:21:35;100.88;;;37.40;;
41309;SDS011;27057;51.438;-0.010;2024-03-08T07:24:03;93.20;;;39.80;;
41309;SDS011;27057;51.438;-0.010;2024-03-08T07:26:48;99.63;;;39.15;;
41309;SDS011;27057;51.438;-0.010;2024-03-08T07:29:19;106.43;;;41.58;;
41309;SDS011;27057;51.438;-0.010;2024-03-08T07:31:58;97.20;;;39.75;;
41309;SDS011;27057;51.438;-0.010;2024-03-08T07:34:28;97.60;;;41.05;;
41309;SDS011;27057;51.438;-0.010;2024-03-08T07:36:59;90.82;;;34.17;;
41309;SDS011;27057;51.438;-0.010;2024-03-08T07:39:28;94.47;;;39.58;;
41309;SDS011;27057;51.438;-0.010;2024-03-08T07:41:56;93.22;;;37.70;;
41309;SDS011;27057;51.438;-0.010;2024-03-08T07:44:26;99.30;;;41.63;;
41309;SDS011;27057;51.438;-0.010;2024-03-08T07:46:54;96.22;;;40.20;;
41309;SDS011;27057;51.438;-0.010;2024-03-08T07:49:24;101.18;;;39.40;;
41309;SDS011;27057;51.438;-0.010;2024-03-08T07:51:51;98.68;;;37.15;;
41309;SDS011;27057;51.438;-0.010;2024-03-08T07:54:24;90.65;;;36.97;;
41309;SDS011;27057;51.438;-0.010;2024-03-08T07:56:53;99.40;;;40.55;;
41309;SDS011;27057;51.438;-0.010;2024-03-08T07:59:20;109.28;;;39.60;;
41309;SDS011;27057;51.438;-0.010;2024-03-08T08:01:47;100.50;;;38.92;;
41309;SDS011;27057;51.438;-0.010;2024-03-08T08:04:16;83.13;;;35.65;;
41309;SDS011;27057;51.438;-0.010;2024-03-08T08:06:45;97.57;;;37.10;;
41309;SDS011;27057;51.438;-0.010;2024-03-08T08:09:15;109.18;;;39.83;;
41309;SDS011;27057;51.438;-0.010;2024-03-08T08:11:51;92.75;;;37.50;;
41309;SDS011;27057;51.438;-0.010;2024-03-08T08:14:19;93.72;;;40.13;;
41309;SDS011;27057;51.438;-0.010;2024-03-08T08:16:48;82.25;;;34.47;;
41309;SDS011;27057;51.438;-0.010;2024-03-08T08:19:18;116.65;;;37.95;;
41309;SDS011;27057;51.438;-0.010;2024-03-08T08:21:46;82.45;;;37.03;;
41309;SDS011;27057;51.438;-0.010;2024-03-08T08:24:14;90.18;;;34.05;;
41309;SDS011;27057;51.438;-0.010;2024-03-08T08:26:44;95.00;;;39.60;;
41309;SDS011;27057;51.438;-0.010;2024-03-08T08:29:12;92.57;;;38.35;;
41309;SDS011;27057;51.438;-0.010;2024-03-08T08:31:39;76.95;;;31.52;;
41309;SDS011;27057;51.438;-0.010;2024-03-08T08:34:08;93.60;;;39.55;;
41309;SDS011;27057;51.438;-0.010;2024-03-08T08:36:37;65.97;;;27.15;;
41309;SDS011;27057;51.438;-0.010;2024-03-08T08:39:05;84.55;;;32.72;;
41309;SDS011;27057;51.438;-0.010;2024-03-08T08:41:39;79.13;;;32.97;;
41309;SDS011;27057;51.438;-0.010;2024-03-08T08:44:09;81.32;;;36.00;;
41309;SDS011;27057;51.438;-0.010;2024-03-08T08:46:42;77.82;;;34.20;;
41309;SDS011;27057;51.438;-0.010;2024-03-08T08:49:10;85.55;;;35.95;;
41309;SDS011;27057;51.438;-0.010;2024-03-08T08:51:48;79.25;;;35.92;;
41309;SDS011;27057;51.438;-0.010;2024-03-08T08:54:20;73.82;;;30.80;;
41309;SDS011;27057;51.438;-0.010;2024-03-08T08:56:50;84.15;;;30.77;;
41309;SDS011;27057;51.438;-0.010;2024-03-08T08:59:17;83.47;;;33.88;;
41309;SDS011;27057;51.438;-0.010;2024-03-08T09:01:50;83.30;;;31.45;;
41309;SDS011;27057;51.438;-0.010;2024-03-08T09:04:25;76.60;;;33.42;;
41309;SDS011;27057;51.438;-0.010;2024-03-08T09:06:53;88.55;;;33.85;;
41309;SDS011;27057;51.438;-0.010;2024-03-08T09:09:20;73.18;;;33.55;;
41309;SDS011;27057;51.438;-0.010;2024-03-08T09:11:48;62.58;;;26.90;;
41309;SDS011;27057;51.438;-0.010;2024-03-08T09:14:18;67.40;;;24.45;;
41309;SDS011;27057;51.438;-0.010;2024-03-08T09:16:50;87.88;;;32.95;;
41309;SDS011;27057;51.438;-0.010;2024-03-08T09:19:17;69.78;;;29.73;;
41309;SDS011;27057;51.438;-0.010;2024-03-08T09:21:46;73.15;;;30.27;;
41309;SDS011;27057;51.438;-0.010;2024-03-08T09:24:13;70.65;;;32.35;;
41309;SDS011;27057;51.438;-0.010;2024-03-08T09:26:41;73.40;;;32.47;;
41309;SDS011;27057;51.438;-0.010;2024-03-08T09:29:10;72.97;;;29.45;;
41309;SDS011;27057;51.438;-0.010;2024-03-08T09:31:38;72.60;;;33.13;;
41309;SDS011;27057;51.438;-0.010;2024-03-08T09:34:06;76.10;;;32.25;;
41309;SDS011;27057;51.438;-0.010;2024-03-08T09:36:37;67.82;;;30.55;;
41309;SDS011;27057;51.438;-0.010;2024-03-08T09:39:04;61.85;;;27.58;;
41309;SDS011;27057;51.438;-0.010;2024-03-08T09:41:34;59.45;;;28.95;;
41309;SDS011;27057;51.438;-0.010;2024-03-08T09:44:03;72.53;;;31.17;;
41309;SDS011;27057;51.438;-0.010;2024-03-08T09:46:34;71.25;;;30.13;;
41309;SDS011;27057;51.438;-0.010;2024-03-08T09:49:01;54.20;;;26.10;;
41309;SDS011;27057;51.438;-0.010;2024-03-08T09:51:31;77.63;;;30.98;;
41309;SDS011;27057;51.438;-0.010;2024-03-08T09:54:02;54.75;;;25.30;;
41309;SDS011;27057;51.438;-0.010;2024-03-08T09:56:43;53.17;;;23.85;;
41309;SDS011;27057;51.438;-0.010;2024-03-08T09:59:13;65.75;;;28.88;;
41309;SDS011;27057;51.438;-0.010;2024-03-08T10:01:50;61.43;;;28.20;;
41309;SDS011;27057;51.438;-0.010;2024-03-08T10:04:19;55.83;;;26.08;;
41309;SDS011;27057;51.438;-0.010;2024-03-08T10:06:46;58.22;;;25.48;;
41309;SDS011;27057;51.438;-0.010;2024-03-08T10:09:14;43.00;;;21.58;;
41309;SDS011;27057;51.438;-0.010;2024-03-08T10:11:43;60.80;;;25.08;;
41309;SDS011;27057;51.438;-0.010;2024-03-08T10:14:11;56.60;;;26.52;;
41309;SDS011;27057;51.438;-0.010;2024-03-08T10:16:38;49.22;;;24.05;;
41309;SDS011;27057;51.438;-0.010;2024-03-08T10:19:06;52.60;;;25.90;;
41309;SDS011;27057;51.438;-0.010;2024-03-08T10:21:35;48.30;;;23.33;;
41309;SDS011;27057;51.438;-0.010;2024-03-08T10:24:05;68.47;;;25.95;;
41309;SDS011;27057;51.438;-0.010;2024-03-08T10:26:32;48.67;;;23.50;;
41309;SDS011;27057;51.438;-0.010;2024-03-08T10:28:59;54.30;;;25.85;;
41309;SDS011;27057;51.438;-0.010;2024-03-08T10:31:32;50.70;;;23.83;;
41309;SDS011;27057;51.438;-0.010;2024-03-08T10:34:03;69.05;;;27.05;;
41309;SDS011;27057;51.438;-0.010;2024-03-08T10:36:31;59.17;;;28.77;;
41309;SDS011;27057;51.438;-0.010;2024-03-08T10:39:02;61.30;;;26.25;;
41309;SDS011;27057;51.438;-0.010;2024-03-08T10:41:34;55.80;;;27.13;;
41309;SDS011;27057;51.438;-0.010;2024-03-08T10:44:09;51.75;;;27.02;;
41309;SDS011;27057;51.438;-0.010;2024-03-08T10:52:24;58.08;;;22.38;;
41309;SDS011;27057;51.438;-0.010;2024-03-08T10:54:52;43.53;;;21.40;;
41309;SDS011;27057;51.438;-0.010;2024-03-08T10:57:21;52.22;;;22.67;;
41309;SDS011;27057;51.438;-0.010;2024-03-08T10:59:51;50.05;;;22.92;;
41309;SDS011;27057;51.438;-0.010;2024-03-08T11:02:23;50.53;;;21.17;;
41309;SDS011;27057;51.438;-0.010;2024-03-08T11:04:54;54.22;;;25.20;;
41309;SDS011;27057;51.438;-0.010;2024-03-08T11:07:24;63.05;;;25.63;;
41309;SDS011;27057;51.438;-0.010;2024-03-08T11:09:54;47.20;;;17.60;;
41309;SDS011;27057;51.438;-0.010;2024-03-08T11:12:35;67.90;;;24.85;;
41309;SDS011;27057;51.438;-0.010;2024-03-08T11:15:11;41.33;;;19.27;;
41309;SDS011;27057;51.438;-0.010;2024-03-08T11:17:40;49.80;;;23.30;;
41309;SDS011;27057;51.438;-0.010;2024-03-08T11:20:16;52.67;;;25.17;;
41309;SDS011;27057;51.438;-0.010;2024-03-08T11:22:48;48.90;;;23.42;;
41309;SDS011;27057;51.438;-0.010;2024-03-08T11:25:34;58.42;;;25.15;;
41309;SDS011;27057;51.438;-0.010;2024-03-08T11:28:11;57.55;;;24.90;;
41309;SDS011;27057;51.438;-0.010;2024-03-08T11:30:44;43.60;;;19.77;;
41309;SDS011;27057;51.438;-0.010;2024-03-08T11:33:29;54.53;;;24.15;;
41309;SDS011;27057;51.438;-0.010;2024-03-08T11:38:41;48.15;;;23.17;;
41309;SDS011;27057;51.438;-0.010;2024-03-08T11:41:19;40.92;;;19.00;;
41309;SDS011;27057;51.438;-0.010;2024-03-08T11:43:48;52.70;;;22.38;;
41309;SDS011;27057;51.438;-0.010;2024-03-08T11:46:17;50.10;;;22.95;;
41309;SDS011;27057;51.438;-0.010;2024-03-08T11:48:47;45.70;;;23.20;;
41309;SDS011;27057;51.438;-0.010;2024-03-08T11:51:16;48.72;;;21.33;;
41309;SDS011;27057;51.438;-0.010;2024-03-08T11:53:46;38.03;;;17.08;;
41309;SDS011;27057;51.438;-0.010;2024-03-08T11:56:16;41.95;;;19.80;;
41309;SDS011;27057;51.438;-0.010;2024-03-08T11:58:54;46.25;;;22.35;;
41309;SDS011;27057;51.438;-0.010;2024-03-08T12:01:25;43.70;;;21.85;;
41309;SDS011;27057;51.438;-0.010;2024-03-08T12:03:53;49.38;;;22.38;;
41309;SDS011;27057;51.438;-0.010;2024-03-08T12:06:23;40.90;;;21.20;;
41309;SDS011;27057;51.438;-0.010;2024-03-08T12:08:50;43.50;;;19.05;;
41309;SDS011;27057;51.438;-0.010;2024-03-08T12:11:18;45.80;;;23.25;;
41309;SDS011;27057;51.438;-0.010;2024-03-08T12:13:52;52.53;;;24.90;;
41309;SDS011;27057;51.438;-0.010;2024-03-08T12:16:21;46.60;;;22.20;;
41309;SDS011;27057;51.438;-0.010;2024-03-08T12:18:51;38.60;;;19.20;;
41309;SDS011;27057;51.438;-0.010;2024-03-08T12:21:20;41.35;;;20.30;;
41309;SDS011;27057;51.438;-0.010;2024-03-08T12:24:06;49.83;;;24.55;;
41309;SDS011;27057;51.438;-0.010;2024-03-08T12:26:39;42.92;;;23.15;;
41309;SDS011;27057;51.438;-0.010;2024-03-08T12:29:25;44.50;;;21.75;;
41309;SDS011;27057;51.438;-0.010;2024-03-08T12:31:55;35.83;;;17.67;;
41309;SDS011;27057;51.438;-0.010;2024-03-08T12:34:26;51.88;;;23.25;;
41309;SDS011;27057;51.438;-0.010;2024-03-08T12:37:00;53.70;;;22.60;;
41309;SDS011;27057;51.438;-0.010;2024-03-08T12:39:27;51.13;;;25.73;;
41309;SDS011;27057;51.438;-0.010;2024-03-08T12:41:56;52.33;;;23.38;;
41309;SDS011;27057;51.438;-0.010;2024-03-08T12:44:24;50.17;;;26.02;;
41309;SDS011;27057;51.438;-0.010;2024-03-08T12:46:53;50.08;;;25.10;;
41309;SDS011;27057;51.438;-0.010;2024-03-08T12:49:21;45.08;;;25.27;;
41309;SDS011;27057;51.438;-0.010;2024-03-08T12:51:49;43.83;;;23.20;;
41309;SDS011;27057;51.438;-0.010;2024-03-08T12:54:19;45.28;;;22.65;;
41309;SDS011;27057;51.438;-0.010;2024-03-08T12:56:50;56.78;;;27.50;;
41309;SDS011;27057;51.438;-0.010;2024-03-08T12:59:21;51.13;;;26.10;;
41309;SDS011;27057;51.438;-0.010;2024-03-08T13:01:50;48.15;;;24.20;;
41309;SDS011;27057;51.438;-0.010;2024-03-08T13:04:21;46.60;;;25.17;;
41309;SDS011;27057;51.438;-0.010;2024-03-08T13:06:49;54.05;;;23.98;;
41309;SDS011;27057;51.438;-0.010;2024-03-08T13:09:21;62.50;;;27.05;;
41309;SDS011;27057;51.438;-0.010;2024-03-08T13:11:49;41.13;;;22.38;;
41309;SDS011;27057;51.438;-0.010;2024-03-08T13:14:17;49.85;;;25.77;;
41309;SDS011;27057;51.438;-0.010;2024-03-08T13:16:44;53.80;;;26.40;;
41309;SDS011;27057;51.438;-0.010;2024-03-08T13:19:15;56.03;;;26.08;;
41309;SDS011;27057;51.438;-0.010;2024-03-08T13:21:43;42.83;;;21.70;;
41309;SDS011;27057;51.438;-0.010;2024-03-08T13:24:16;50.38;;;26.60;;
41309;SDS011;27057;51.438;-0.010;2024-03-08T13:26:47;49.97;;;26.50;;
41309;SDS011;27057;51.438;-0.010;2024-03-08T13:29:15;48.67;;;27.27;;
41309;SDS011;27057;51.438;-0.010;2024-03-08T13:31:42;50.53;;;26.92;;
41309;SDS011;27057;51.438;-0.010;2024-03-08T13:34:10;51.13;;;27.02;;
41309;SDS011;27057;51.438;-0.010;2024-03-08T13:36:38;47.97;;;26.58;;
41309;SDS011;27057;51.438;-0.010;2024-03-08T13:39:10;46.25;;;24.17;;
41309;SDS011;27057;51.438;-0.010;2024-03-08T13:41:48;44.83;;;24.23;;
41309;SDS011;27057;51.438;-0.010;2024-03-08T13:44:15;48.50;;;25.65;;
41309;SDS011;27057;51.438;-0.010;2024-03-08T13:46:46;45.13;;;25.40;;
41309;SDS011;27057;51.438;-0.010;2024-03-08T13:49:18;52.67;;;24.92;;
41309;SDS011;27057;51.438;-0.010;2024-03-08T13:51:45;49.42;;;27.20;;
41309;SDS011;27057;51.438;-0.010;2024-03-08T13:54:13;50.72;;;26.02;;
41309;SDS011;27057;51.438;-0.010;2024-03-08T13:56:43;47.13;;;27.75;;
41309;SDS011;27057;51.438;-0.010;2024-03-08T13:59:11;42.25;;;21.00;;
41309;SDS011;27057;51.438;-0.010;2024-03-08T14:01:40;48.83;;;27.20;;
41309;SDS011;27057;51.438;-0.010;2024-03-08T14:04:07;48.83;;;26.33;;
41309;SDS011;27057;51.438;-0.010;2024-03-08T14:06:35;48.17;;;25.85;;
41309;SDS011;27057;51.438;-0.010;2024-03-08T14:09:07;50.90;;;24.65;;
41309;SDS011;27057;51.438;-0.010;2024-03-08T14:11:35;48.42;;;26.42;;
41309;SDS011;27057;51.438;-0.010;2024-03-08T14:14:03;50.47;;;26.52;;
41309;SDS011;27057;51.438;-0.010;2024-03-08T14:16:31;41.63;;;24.02;;
41309;SDS011;27057;51.438;-0.010;2024-03-08T14:18:58;47.45;;;25.13;;
41309;SDS011;27057;51.438;-0.010;2024-03-08T14:21:30;47.50;;;26.00;;
41309;SDS011;27057;51.438;-0.010;2024-03-08T14:24:00;53.72;;;26.67;;
41309;SDS011;27057;51.438;-0.010;2024-03-08T14:26:28;52.55;;;26.20;;